sensor_id;sensor_type;location;lat;lon;timestamp;P1;durP1;ratioP1;P2;durP2;ratioP2
70126;SDS011;57491;42.694;23.314;2023-06-04T00:02:18;3.80;;;3.17;;
70126;SDS011;57491;42.694;23.314;2023-06-04T00:04:45;6.10;;;4.07;;
70126;SDS011;57491;42.694;23.314;2023-06-04T00:07:12;4.93;;;3.83;;
70126;SDS011;57491;42.694;23.314;2023-06-04T00:09:41;5.33;;;3.80;;
70126;SDS011;57491;42.694;23.314;2023-06-04T00:12:08;5.72;;;4.45;;
70126;SDS011;57491;42.694;23.314;2023-06-04T00:14:35;4.15;;;3.75;;
70126;SDS011;57491;42.694;23.314;2023-06-04T00:17:02;5.47;;;3.43;;
70126;SDS011;57491;42.694;23.314;2023-06-04T00:19:29;3.63;;;2.80;;
70126;SDS011;57491;42.694;23.314;2023-06-04T00:21:56;6.80;;;3.47;;
70126;SDS011;57491;42.694;23.314;2023-06-04T00:24:23;4.23;;;3.33;;
70126;SDS011;57491;42.694;23.314;2023-06-04T00:26:52;4.63;;;3.43;;
70126;SDS011;57491;42.694;23.314;2023-06-04T00:29:19;4.57;;;3.15;;
70126;SDS011;57491;42.694;23.314;2023-06-04T00:31:46;3.65;;;3.13;;
70126;SDS011;57491;42.694;23.314;2023-06-04T00:34:13;4.00;;;3.40;;
70126;SDS011;57491;42.694;23.314;2023-06-04T00:36:40;4.57;;;3.50;;
70126;SDS011;57491;42.694;23.314;2023-06-04T00:39:07;6.00;;;4.77;;
70126;SDS011;57491;42.694;23.314;2023-06-04T00:41:34;3.90;;;3.25;;
70126;SDS011;57491;42.694;23.314;2023-06-04T00:44:02;4.37;;;3.10;;
70126;SDS011;57491;42.694;23.314;2023-06-04T00:46:31;3.78;;;3.42;;
70126;SDS011;57491;42.694;23.314;2023-06-04T00:49:01;3.55;;;2.90;;
70126;SDS011;57491;42.694;23.314;2023-06-04T00:51:29;3.75;;;3.13;;
70126;SDS011;57491;42.694;23.314;2023-06-04T00:53:58;4.07;;;3.15;;
70126;SDS011;57491;42.694;23.314;2023-06-04T00:56:27;8.77;;;4.20;;
70126;SDS011;57491;42.694;23.314;2023-06-04T00:58:54;4.17;;;3.50;;
70126;SDS011;57491;42.694;23.314;2023-06-04T01:01:24;4.57;;;3.60;;
70126;SDS011;57491;42.694;23.314;2023-06-04T01:03:58;2.87;;;2.60;;
70126;SDS011;57491;42.694;23.314;2023-06-04T01:06:28;5.03;;;3.60;;
70126;SDS011;57491;42.694;23.314;2023-06-04T01:09:02;4.00;;;3.00;;
70126;SDS011;57491;42.694;23.314;2023-06-04T01:11:31;3.97;;;3.50;;
70126;SDS011;57491;42.694;23.314;2023-06-04T01:13:59;4.80;;;3.30;;
70126;SDS011;57491;42.694;23.314;2023-06-04T01:16:28;4.88;;;3.13;;
70126;SDS011;57491;42.694;23.314;2023-06-04T01:19:02;4.43;;;2.85;;
70126;SDS011;57491;42.694;23.314;2023-06-04T01:21:47;3.30;;;2.80;;
70126;SDS011;57491;42.694;23.314;2023-06-04T01:24:20;3.97;;;3.13;;
70126;SDS011;57491;42.694;23.314;2023-06-04T01:26:49;3.70;;;2.88;;
70126;SDS011;57491;42.694;23.314;2023-06-04T01:29:21;3.28;;;2.38;;
70126;SDS011;57491;42.694;23.314;2023-06-04T01:31:50;3.20;;;2.80;;
70126;SDS011;57491;42.694;23.314;2023-06-04T01:34:19;4.72;;;2.90;;
70126;SDS011;57491;42.694;23.314;2023-06-04T01:36:46;3.17;;;2.67;;
70126;SDS011;57491;42.694;23.314;2023-06-04T01:39:13;3.80;;;2.88;;
70126;SDS011;57491;42.694;23.314;2023-06-04T01:41:40;3.97;;;3.13;;
70126;SDS011;57491;42.694;23.314;2023-06-04T01:44:07;3.85;;;3.25;;
70126;SDS011;57491;42.694;23.314;2023-06-04T01:46:34;4.35;;;2.95;;
70126;SDS011;57491;42.694;23.314;2023-06-04T01:49:03;4.43;;;3.10;;
70126;SDS011;57491;42.694;23.314;2023-06-04T01:51:31;5.10;;;3.63;;
70126;SDS011;57491;42.694;23.314;2023-06-04T01:53:58;3.57;;;3.20;;
70126;SDS011;57491;42.694;23.314;2023-06-04T01:56:25;3.75;;;2.42;;
70126;SDS011;57491;42.694;23.314;2023-06-04T01:58:53;4.10;;;2.67;;
70126;SDS011;57491;42.694;23.314;2023-06-04T02:01:20;3.80;;;2.80;;
70126;SDS011;57491;42.694;23.314;2023-06-04T02:03:47;4.20;;;2.95;;
70126;SDS011;57491;42.694;23.314;2023-06-04T02:06:16;4.50;;;2.92;;
70126;SDS011;57491;42.694;23.314;2023-06-04T02:08:42;3.35;;;2.80;;
70126;SDS011;57491;42.694;23.314;2023-06-04T02:11:10;3.17;;;2.83;;
70126;SDS011;57491;42.694;23.314;2023-06-04T02:13:37;4.32;;;2.65;;
70126;SDS011;57491;42.694;23.314;2023-06-04T02:16:04;2.40;;;2.20;;
70126;SDS011;57491;42.694;23.314;2023-06-04T02:18:31;3.08;;;2.55;;
70126;SDS011;57491;42.694;23.314;2023-06-04T02:20:59;3.92;;;3.08;;
70126;SDS011;57491;42.694;23.314;2023-06-04T02:23:27;5.97;;;3.00;;
70126;SDS011;57491;42.694;23.314;2023-06-04T02:25:54;3.92;;;3.33;;
70126;SDS011;57491;42.694;23.314;2023-06-04T02:28:21;4.13;;;2.73;;
70126;SDS011;57491;42.694;23.314;2023-06-04T02:30:49;3.33;;;2.95;;
70126;SDS011;57491;42.694;23.314;2023-06-04T02:33:16;6.82;;;3.10;;
70126;SDS011;57491;42.694;23.314;2023-06-04T02:35:43;3.65;;;3.35;;
70126;SDS011;57491;42.694;23.314;2023-06-04T02:38:10;4.35;;;3.28;;
70126;SDS011;57491;42.694;23.314;2023-06-04T02:40:38;4.27;;;3.43;;
70126;SDS011;57491;42.694;23.314;2023-06-04T02:43:05;3.45;;;3.10;;
70126;SDS011;57491;42.694;23.314;2023-06-04T02:45:32;4.55;;;3.00;;
70126;SDS011;57491;42.694;23.314;2023-06-04T02:48:00;3.20;;;2.90;;
70126;SDS011;57491;42.694;23.314;2023-06-04T02:52:54;2.95;;;2.58;;
70126;SDS011;57491;42.694;23.314;2023-06-04T02:55:21;5.30;;;2.80;;
70126;SDS011;57491;42.694;23.314;2023-06-04T02:57:49;3.97;;;3.07;;
70126;SDS011;57491;42.694;23.314;2023-06-04T03:00:17;3.97;;;2.97;;
70126;SDS011;57491;42.694;23.314;2023-06-04T03:02:45;3.03;;;2.67;;
70126;SDS011;57491;42.694;23.314;2023-06-04T03:05:14;3.00;;;2.70;;
70126;SDS011;57491;42.694;23.314;2023-06-04T03:07:43;5.07;;;3.35;;
70126;SDS011;57491;42.694;23.314;2023-06-04T03:10:11;3.38;;;3.05;;
70126;SDS011;57491;42.694;23.314;2023-06-04T03:12:39;3.22;;;2.90;;
70126;SDS011;57491;42.694;23.314;2023-06-04T03:15:08;4.40;;;3.17;;
70126;SDS011;57491;42.694;23.314;2023-06-04T03:17:36;3.05;;;2.72;;
70126;SDS011;57491;42.694;23.314;2023-06-04T03:20:03;4.53;;;3.28;;
70126;SDS011;57491;42.694;23.314;2023-06-04T03:22:32;5.20;;;3.58;;
70126;SDS011;57491;42.694;23.314;2023-06-04T03:25:00;4.45;;;3.22;;
70126;SDS011;57491;42.694;23.314;2023-06-04T03:27:29;4.85;;;3.30;;
70126;SDS011;57491;42.694;23.314;2023-06-04T03:29:57;3.67;;;2.97;;
70126;SDS011;57491;42.694;23.314;2023-06-04T03:32:26;3.30;;;2.95;;
70126;SDS011;57491;42.694;23.314;2023-06-04T03:34:53;3.85;;;3.25;;
70126;SDS011;57491;42.694;23.314;2023-06-04T03:37:20;3.63;;;3.13;;
70126;SDS011;57491;42.694;23.314;2023-06-04T03:39:47;3.60;;;2.88;;
70126;SDS011;57491;42.694;23.314;2023-06-04T03:42:14;3.80;;;3.40;;
70126;SDS011;57491;42.694;23.314;2023-06-04T03:44:41;7.17;;;3.73;;
70126;SDS011;57491;42.694;23.314;2023-06-04T03:47:08;4.17;;;3.20;;
70126;SDS011;57491;42.694;23.314;2023-06-04T03:49:36;3.47;;;3.17;;
70126;SDS011;57491;42.694;23.314;2023-06-04T03:52:04;4.97;;;3.13;;
70126;SDS011;57491;42.694;23.314;2023-06-04T03:54:31;3.97;;;3.33;;
70126;SDS011;57491;42.694;23.314;2023-06-04T03:56:58;3.57;;;3.17;;
70126;SDS011;57491;42.694;23.314;2023-06-04T03:59:25;4.93;;;3.50;;
70126;SDS011;57491;42.694;23.314;2023-06-04T04:01:52;4.70;;;3.23;;
70126;SDS011;57491;42.694;23.314;2023-06-04T04:04:19;4.43;;;3.03;;
70126;SDS011;57491;42.694;23.314;2023-06-04T04:06:47;3.78;;;3.05;;
70126;SDS011;57491;42.694;23.314;2023-06-04T04:09:15;8.43;;;3.38;;
70126;SDS011;57491;42.694;23.314;2023-06-04T04:11:42;5.23;;;3.60;;
70126;SDS011;57491;42.694;23.314;2023-06-04T04:14:09;4.65;;;3.67;;
70126;SDS011;57491;42.694;23.314;2023-06-04T04:16:36;7.57;;;3.70;;
70126;SDS011;57491;42.694;23.314;2023-06-04T04:19:03;5.93;;;3.83;;
70126;SDS011;57491;42.694;23.314;2023-06-04T04:21:33;4.45;;;3.78;;
70126;SDS011;57491;42.694;23.314;2023-06-04T04:24:03;7.60;;;4.00;;
70126;SDS011;57491;42.694;23.314;2023-06-04T04:26:30;4.80;;;3.95;;
70126;SDS011;57491;42.694;23.314;2023-06-04T04:28:57;6.43;;;3.87;;
70126;SDS011;57491;42.694;23.314;2023-06-04T04:31:25;4.97;;;4.28;;
70126;SDS011;57491;42.694;23.314;2023-06-04T04:36:21;5.10;;;3.78;;
70126;SDS011;57491;42.694;23.314;2023-06-04T04:38:48;6.77;;;4.47;;
70126;SDS011;57491;42.694;23.314;2023-06-04T04:41:20;4.70;;;4.00;;
70126;SDS011;57491;42.694;23.314;2023-06-04T04:43:48;6.65;;;4.05;;
70126;SDS011;57491;42.694;23.314;2023-06-04T04:46:15;8.03;;;4.23;;
70126;SDS011;57491;42.694;23.314;2023-06-04T04:48:43;5.88;;;4.53;;
70126;SDS011;57491;42.694;23.314;2023-06-04T04:51:10;4.95;;;4.38;;
70126;SDS011;57491;42.694;23.314;2023-06-04T04:53:37;4.97;;;4.43;;
70126;SDS011;57491;42.694;23.314;2023-06-04T04:56:04;6.97;;;4.50;;
70126;SDS011;57491;42.694;23.314;2023-06-04T04:58:32;5.80;;;4.50;;
70126;SDS011;57491;42.694;23.314;2023-06-04T05:01:00;4.93;;;4.32;;
70126;SDS011;57491;42.694;23.314;2023-06-04T05:03:27;7.87;;;4.67;;
70126;SDS011;57491;42.694;23.314;2023-06-04T05:05:54;5.05;;;4.47;;
70126;SDS011;57491;42.694;23.314;2023-06-04T05:08:21;6.17;;;4.57;;
70126;SDS011;57491;42.694;23.314;2023-06-04T05:10:48;6.93;;;5.07;;
70126;SDS011;57491;42.694;23.314;2023-06-04T05:15:44;6.50;;;4.63;;
70126;SDS011;57491;42.694;23.314;2023-06-04T05:18:13;6.82;;;4.78;;
70126;SDS011;57491;42.694;23.314;2023-06-04T05:20:41;6.43;;;4.88;;
70126;SDS011;57491;42.694;23.314;2023-06-04T05:23:08;7.55;;;5.28;;
70126;SDS011;57491;42.694;23.314;2023-06-04T05:25:37;8.57;;;4.80;;
70126;SDS011;57491;42.694;23.314;2023-06-04T05:28:06;9.32;;;4.88;;
70126;SDS011;57491;42.694;23.314;2023-06-04T05:30:33;5.75;;;4.75;;
70126;SDS011;57491;42.694;23.314;2023-06-04T05:33:01;5.57;;;4.90;;
70126;SDS011;57491;42.694;23.314;2023-06-04T05:35:28;5.88;;;4.70;;
70126;SDS011;57491;42.694;23.314;2023-06-04T05:37:55;7.60;;;4.83;;
70126;SDS011;57491;42.694;23.314;2023-06-04T05:40:22;4.88;;;4.38;;
70126;SDS011;57491;42.694;23.314;2023-06-04T05:42:49;6.23;;;4.80;;
70126;SDS011;57491;42.694;23.314;2023-06-04T05:45:17;8.25;;;4.68;;
70126;SDS011;57491;42.694;23.314;2023-06-04T05:47:44;5.03;;;4.53;;
70126;SDS011;57491;42.694;23.314;2023-06-04T05:50:13;7.13;;;4.78;;
70126;SDS011;57491;42.694;23.314;2023-06-04T05:52:40;5.00;;;4.22;;
70126;SDS011;57491;42.694;23.314;2023-06-04T05:55:08;4.95;;;4.45;;
70126;SDS011;57491;42.694;23.314;2023-06-04T05:57:36;6.70;;;5.28;;
70126;SDS011;57491;42.694;23.314;2023-06-04T06:00:03;5.70;;;4.32;;
70126;SDS011;57491;42.694;23.314;2023-06-04T06:02:34;6.75;;;4.60;;
70126;SDS011;57491;42.694;23.314;2023-06-04T06:05:01;5.75;;;4.63;;
70126;SDS011;57491;42.694;23.314;2023-06-04T06:07:29;11.60;;;4.90;;
70126;SDS011;57491;42.694;23.314;2023-06-04T06:09:56;5.75;;;5.15;;
70126;SDS011;57491;42.694;23.314;2023-06-04T06:12:23;7.07;;;4.80;;
70126;SDS011;57491;42.694;23.314;2023-06-04T06:14:50;7.45;;;5.00;;
70126;SDS011;57491;42.694;23.314;2023-06-04T06:17:17;6.53;;;5.30;;
70126;SDS011;57491;42.694;23.314;2023-06-04T06:19:44;7.27;;;5.17;;
70126;SDS011;57491;42.694;23.314;2023-06-04T06:22:11;7.03;;;4.60;;
70126;SDS011;57491;42.694;23.314;2023-06-04T06:24:40;6.97;;;5.30;;
70126;SDS011;57491;42.694;23.314;2023-06-04T06:27:07;8.75;;;5.38;;
70126;SDS011;57491;42.694;23.314;2023-06-04T06:29:34;8.40;;;4.87;;
70126;SDS011;57491;42.694;23.314;2023-06-04T06:32:01;6.03;;;5.00;;
70126;SDS011;57491;42.694;23.314;2023-06-04T06:34:28;6.28;;;5.28;;
70126;SDS011;57491;42.694;23.314;2023-06-04T06:36:55;6.23;;;4.80;;
70126;SDS011;57491;42.694;23.314;2023-06-04T06:39:22;7.43;;;4.97;;
70126;SDS011;57491;42.694;23.314;2023-06-04T06:41:51;5.47;;;4.93;;
70126;SDS011;57491;42.694;23.314;2023-06-04T06:44:18;6.45;;;5.07;;
70126;SDS011;57491;42.694;23.314;2023-06-04T06:46:45;6.07;;;4.43;;
70126;SDS011;57491;42.694;23.314;2023-06-04T06:49:14;5.57;;;5.03;;
70126;SDS011;57491;42.694;23.314;2023-06-04T06:51:42;6.03;;;4.70;;
70126;SDS011;57491;42.694;23.314;2023-06-04T06:54:09;6.65;;;4.78;;
70126;SDS011;57491;42.694;23.314;2023-06-04T06:56:36;6.63;;;4.95;;
70126;SDS011;57491;42.694;23.314;2023-06-04T06:59:04;7.00;;;5.05;;
70126;SDS011;57491;42.694;23.314;2023-06-04T07:01:31;4.93;;;4.43;;
70126;SDS011;57491;42.694;23.314;2023-06-04T07:03:58;9.63;;;5.38;;
70126;SDS011;57491;42.694;23.314;2023-06-04T07:06:26;7.90;;;5.32;;
70126;SDS011;57491;42.694;23.314;2023-06-04T07:08:53;6.72;;;4.60;;
70126;SDS011;57491;42.694;23.314;2023-06-04T07:11:20;6.82;;;4.85;;
70126;SDS011;57491;42.694;23.314;2023-06-04T07:13:47;6.20;;;5.65;;
70126;SDS011;57491;42.694;23.314;2023-06-04T07:16:16;7.97;;;4.97;;
70126;SDS011;57491;42.694;23.314;2023-06-04T07:18:46;5.70;;;4.85;;
70126;SDS011;57491;42.694;23.314;2023-06-04T07:21:14;6.35;;;4.72;;
70126;SDS011;57491;42.694;23.314;2023-06-04T07:23:42;5.93;;;4.65;;
70126;SDS011;57491;42.694;23.314;2023-06-04T07:26:10;8.55;;;5.18;;
70126;SDS011;57491;42.694;23.314;2023-06-04T07:28:37;10.18;;;5.43;;
70126;SDS011;57491;42.694;23.314;2023-06-04T07:31:04;6.95;;;5.30;;
70126;SDS011;57491;42.694;23.314;2023-06-04T07:33:33;7.53;;;5.53;;
70126;SDS011;57491;42.694;23.314;2023-06-04T07:36:00;6.88;;;5.55;;
70126;SDS011;57491;42.694;23.314;2023-06-04T07:38:27;6.13;;;5.38;;
70126;SDS011;57491;42.694;23.314;2023-06-04T07:40:54;6.00;;;5.15;;
70126;SDS011;57491;42.694;23.314;2023-06-04T07:43:21;8.68;;;5.63;;
70126;SDS011;57491;42.694;23.314;2023-06-04T07:45:48;7.85;;;5.30;;
70126;SDS011;57491;42.694;23.314;2023-06-04T07:48:15;6.57;;;5.47;;
70126;SDS011;57491;42.694;23.314;2023-06-04T07:50:45;17.75;;;5.53;;
70126;SDS011;57491;42.694;23.314;2023-06-04T07:53:12;5.88;;;5.30;;
70126;SDS011;57491;42.694;23.314;2023-06-04T07:55:38;10.85;;;5.55;;
70126;SDS011;57491;42.694;23.314;2023-06-04T07:58:06;8.07;;;5.50;;
70126;SDS011;57491;42.694;23.314;2023-06-04T08:00:33;7.22;;;5.68;;
70126;SDS011;57491;42.694;23.314;2023-06-04T08:03:00;11.38;;;5.80;;
70126;SDS011;57491;42.694;23.314;2023-06-04T08:05:27;10.02;;;6.13;;
70126;SDS011;57491;42.694;23.314;2023-06-04T08:07:55;9.48;;;5.90;;
70126;SDS011;57491;42.694;23.314;2023-06-04T08:10:22;6.93;;;5.28;;
70126;SDS011;57491;42.694;23.314;2023-06-04T08:12:49;8.25;;;5.78;;
70126;SDS011;57491;42.694;23.314;2023-06-04T08:15:16;12.30;;;6.68;;
70126;SDS011;57491;42.694;23.314;2023-06-04T08:17:43;11.38;;;6.85;;
70126;SDS011;57491;42.694;23.314;2023-06-04T08:20:10;8.30;;;5.90;;
70126;SDS011;57491;42.694;23.314;2023-06-04T08:22:37;8.57;;;6.15;;
70126;SDS011;57491;42.694;23.314;2023-06-04T08:25:07;13.10;;;6.93;;
70126;SDS011;57491;42.694;23.314;2023-06-04T08:27:35;7.93;;;7.03;;
70126;SDS011;57491;42.694;23.314;2023-06-04T08:30:03;10.80;;;7.18;;
70126;SDS011;57491;42.694;23.314;2023-06-04T08:32:31;10.38;;;7.05;;
70126;SDS011;57491;42.694;23.314;2023-06-04T08:34:58;10.10;;;6.80;;
70126;SDS011;57491;42.694;23.314;2023-06-04T08:37:25;12.43;;;8.27;;
70126;SDS011;57491;42.694;23.314;2023-06-04T08:39:52;11.27;;;7.55;;
70126;SDS011;57491;42.694;23.314;2023-06-04T08:42:22;13.65;;;7.07;;
70126;SDS011;57491;42.694;23.314;2023-06-04T08:44:56;9.40;;;6.85;;
70126;SDS011;57491;42.694;23.314;2023-06-04T08:47:23;10.35;;;7.20;;
70126;SDS011;57491;42.694;23.314;2023-06-04T08:49:52;8.65;;;6.40;;
70126;SDS011;57491;42.694;23.314;2023-06-04T08:52:22;8.43;;;6.60;;
70126;SDS011;57491;42.694;23.314;2023-06-04T08:54:50;11.32;;;7.20;;
70126;SDS011;57491;42.694;23.314;2023-06-04T08:57:18;9.13;;;6.90;;
70126;SDS011;57491;42.694;23.314;2023-06-04T08:59:47;10.63;;;6.75;;
70126;SDS011;57491;42.694;23.314;2023-06-04T09:02:14;10.57;;;6.95;;
70126;SDS011;57491;42.694;23.314;2023-06-04T09:04:42;11.00;;;6.85;;
70126;SDS011;57491;42.694;23.314;2023-06-04T09:09:39;10.68;;;6.75;;
70126;SDS011;57491;42.694;23.314;2023-06-04T09:12:08;10.15;;;6.90;;
70126;SDS011;57491;42.694;23.314;2023-06-04T09:14:37;8.80;;;6.38;;
70126;SDS011;57491;42.694;23.314;2023-06-04T09:17:05;18.88;;;9.43;;
70126;SDS011;57491;42.694;23.314;2023-06-04T09:19:32;13.85;;;8.07;;
70126;SDS011;57491;42.694;23.314;2023-06-04T09:21:59;10.40;;;7.35;;
70126;SDS011;57491;42.694;23.314;2023-06-04T09:24:37;9.50;;;7.65;;
70126;SDS011;57491;42.694;23.314;2023-06-04T09:29:35;10.43;;;7.93;;
70126;SDS011;57491;42.694;23.314;2023-06-04T09:32:02;11.53;;;8.63;;
70126;SDS011;57491;42.694;23.314;2023-06-04T09:34:31;12.63;;;8.50;;
70126;SDS011;57491;42.694;23.314;2023-06-04T09:36:58;15.63;;;9.32;;
70126;SDS011;57491;42.694;23.314;2023-06-04T09:39:25;13.55;;;8.85;;
70126;SDS011;57491;42.694;23.314;2023-06-04T09:41:58;14.32;;;8.27;;
70126;SDS011;57491;42.694;23.314;2023-06-04T09:44:27;11.75;;;8.35;;
70126;SDS011;57491;42.694;23.314;2023-06-04T09:46:56;14.38;;;9.73;;
70126;SDS011;57491;42.694;23.314;2023-06-04T09:49:24;14.00;;;9.35;;
70126;SDS011;57491;42.694;23.314;2023-06-04T09:51:53;11.10;;;8.27;;
70126;SDS011;57491;42.694;23.314;2023-06-04T09:54:20;12.05;;;9.00;;
70126;SDS011;57491;42.694;23.314;2023-06-04T09:56:47;14.23;;;8.60;;
70126;SDS011;57491;42.694;23.314;2023-06-04T09:59:14;10.93;;;8.88;;
70126;SDS011;57491;42.694;23.314;2023-06-04T10:01:41;12.38;;;9.50;;
70126;SDS011;57491;42.694;23.314;2023-06-04T10:04:09;10.32;;;8.10;;
70126;SDS011;57491;42.694;23.314;2023-06-04T10:06:39;10.65;;;8.95;;
70126;SDS011;57491;42.694;23.314;2023-06-04T10:09:09;15.40;;;9.68;;
70126;SDS011;57491;42.694;23.314;2023-06-04T10:11:40;11.73;;;8.75;;
70126;SDS011;57491;42.694;23.314;2023-06-04T10:14:15;10.00;;;8.30;;
70126;SDS011;57491;42.694;23.314;2023-06-04T10:16:48;9.48;;;7.60;;
70126;SDS011;57491;42.694;23.314;2023-06-04T10:19:17;10.05;;;7.47;;
70126;SDS011;57491;42.694;23.314;2023-06-04T10:21:45;8.55;;;7.10;;
70126;SDS011;57491;42.694;23.314;2023-06-04T10:24:14;10.27;;;6.93;;
70126;SDS011;57491;42.694;23.314;2023-06-04T10:26:41;10.00;;;7.65;;
70126;SDS011;57491;42.694;23.314;2023-06-04T10:29:09;10.05;;;7.50;;
70126;SDS011;57491;42.694;23.314;2023-06-04T10:31:37;9.60;;;7.82;;
70126;SDS011;57491;42.694;23.314;2023-06-04T10:34:06;9.85;;;7.68;;
70126;SDS011;57491;42.694;23.314;2023-06-04T10:36:42;11.98;;;7.53;;
70126;SDS011;57491;42.694;23.314;2023-06-04T10:39:09;8.50;;;7.60;;
70126;SDS011;57491;42.694;23.314;2023-06-04T10:44:05;10.52;;;7.20;;
70126;SDS011;57491;42.694;23.314;2023-06-04T10:46:40;8.25;;;7.35;;
70126;SDS011;57491;42.694;23.314;2023-06-04T10:49:09;8.13;;;7.10;;
70126;SDS011;57491;42.694;23.314;2023-06-04T10:51:37;10.27;;;7.05;;
70126;SDS011;57491;42.694;23.314;2023-06-04T10:54:06;8.10;;;6.55;;
70126;SDS011;57491;42.694;23.314;2023-06-04T10:59:13;10.25;;;7.82;;
70126;SDS011;57491;42.694;23.314;2023-06-04T11:01:41;9.27;;;8.00;;
70126;SDS011;57491;42.694;23.314;2023-06-04T11:04:17;9.18;;;7.57;;
70126;SDS011;57491;42.694;23.314;2023-06-04T11:06:45;11.45;;;7.53;;
70126;SDS011;57491;42.694;23.314;2023-06-04T11:09:13;10.13;;;7.95;;
70126;SDS011;57491;42.694;23.314;2023-06-04T11:11:42;9.50;;;8.50;;
70126;SDS011;57491;42.694;23.314;2023-06-04T11:14:10;8.88;;;7.50;;
70126;SDS011;57491;42.694;23.314;2023-06-04T11:16:39;10.70;;;7.78;;
70126;SDS011;57491;42.694;23.314;2023-06-04T11:19:06;9.73;;;8.40;;
70126;SDS011;57491;42.694;23.314;2023-06-04T11:21:34;10.05;;;8.90;;
70126;SDS011;57491;42.694;23.314;2023-06-04T11:24:03;8.40;;;7.53;;
70126;SDS011;57491;42.694;23.314;2023-06-04T11:26:31;8.60;;;7.78;;
70126;SDS011;57491;42.694;23.314;2023-06-04T11:28:59;10.40;;;9.00;;
70126;SDS011;57491;42.694;23.314;2023-06-04T11:33:55;14.75;;;10.50;;
70126;SDS011;57491;42.694;23.314;2023-06-04T11:36:22;12.55;;;9.38;;
70126;SDS011;57491;42.694;23.314;2023-06-04T11:38:54;12.43;;;10.23;;
70126;SDS011;57491;42.694;23.314;2023-06-04T11:41:22;11.05;;;8.43;;
70126;SDS011;57491;42.694;23.314;2023-06-04T11:43:49;10.75;;;9.52;;
70126;SDS011;57491;42.694;23.314;2023-06-04T11:46:16;10.45;;;8.85;;
70126;SDS011;57491;42.694;23.314;2023-06-04T11:48:43;9.60;;;8.60;;
70126;SDS011;57491;42.694;23.314;2023-06-04T11:51:12;10.05;;;8.63;;
70126;SDS011;57491;42.694;23.314;2023-06-04T11:53:40;9.75;;;8.75;;
70126;SDS011;57491;42.694;23.314;2023-06-04T11:56:07;14.82;;;10.10;;
70126;SDS011;57491;42.694;23.314;2023-06-04T11:58:36;9.88;;;8.88;;
70126;SDS011;57491;42.694;23.314;2023-06-04T12:01:04;10.80;;;9.05;;
70126;SDS011;57491;42.694;23.314;2023-06-04T12:03:33;10.57;;;9.45;;
70126;SDS011;57491;42.694;23.314;2023-06-04T12:08:49;10.43;;;9.43;;
70126;SDS011;57491;42.694;23.314;2023-06-04T12:11:26;10.40;;;9.35;;
70126;SDS011;57491;42.694;23.314;2023-06-04T12:13:57;10.82;;;9.75;;
70126;SDS011;57491;42.694;23.314;2023-06-04T12:16:25;10.57;;;9.48;;
70126;SDS011;57491;42.694;23.314;2023-06-04T12:19:03;13.48;;;11.50;;
70126;SDS011;57491;42.694;23.314;2023-06-04T12:21:33;12.48;;;11.18;;
70126;SDS011;57491;42.694;23.314;2023-06-04T12:24:06;16.90;;;12.98;;
70126;SDS011;57491;42.694;23.314;2023-06-04T12:26:35;12.07;;;10.35;;
70126;SDS011;57491;42.694;23.314;2023-06-04T12:29:09;17.58;;;9.25;;
70126;SDS011;57491;42.694;23.314;2023-06-04T12:31:37;10.93;;;9.82;;
70126;SDS011;57491;42.694;23.314;2023-06-04T12:34:05;11.27;;;9.65;;
70126;SDS011;57491;42.694;23.314;2023-06-04T12:36:34;12.23;;;10.93;;
70126;SDS011;57491;42.694;23.314;2023-06-04T12:39:01;11.52;;;10.00;;
70126;SDS011;57491;42.694;23.314;2023-06-04T12:41:30;12.05;;;9.60;;
70126;SDS011;57491;42.694;23.314;2023-06-04T12:43:59;10.10;;;9.10;;
70126;SDS011;57491;42.694;23.314;2023-06-04T12:48:54;10.43;;;9.07;;
70126;SDS011;57491;42.694;23.314;2023-06-04T12:51:22;12.98;;;9.77;;
70126;SDS011;57491;42.694;23.314;2023-06-04T12:53:50;13.02;;;9.80;;
70126;SDS011;57491;42.694;23.314;2023-06-04T12:56:18;10.70;;;9.63;;
70126;SDS011;57491;42.694;23.314;2023-06-04T12:58:45;12.50;;;9.52;;
70126;SDS011;57491;42.694;23.314;2023-06-04T13:01:12;10.73;;;9.43;;
70126;SDS011;57491;42.694;23.314;2023-06-04T13:03:39;9.83;;;8.43;;
70126;SDS011;57491;42.694;23.314;2023-06-04T13:06:07;11.65;;;8.75;;
70126;SDS011;57491;42.694;23.314;2023-06-04T13:08:35;11.90;;;8.93;;
70126;SDS011;57491;42.694;23.314;2023-06-04T13:11:04;9.82;;;8.82;;
70126;SDS011;57491;42.694;23.314;2023-06-04T13:13:31;12.38;;;8.60;;
70126;SDS011;57491;42.694;23.314;2023-06-04T13:15:58;14.20;;;8.93;;
70126;SDS011;57491;42.694;23.314;2023-06-04T13:18:26;11.15;;;8.70;;
70126;SDS011;57491;42.694;23.314;2023-06-04T13:20:53;9.17;;;8.00;;
70126;SDS011;57491;42.694;23.314;2023-06-04T13:23:20;8.93;;;7.95;;
70126;SDS011;57491;42.694;23.314;2023-06-04T13:25:47;12.10;;;8.57;;
70126;SDS011;57491;42.694;23.314;2023-06-04T13:28:16;12.20;;;9.57;;
70126;SDS011;57491;42.694;23.314;2023-06-04T13:30:43;9.27;;;8.45;;
70126;SDS011;57491;42.694;23.314;2023-06-04T13:33:10;11.70;;;9.10;;
70126;SDS011;57491;42.694;23.314;2023-06-04T13:35:38;11.85;;;8.68;;
70126;SDS011;57491;42.694;23.314;2023-06-04T13:38:05;10.77;;;8.63;;
70126;SDS011;57491;42.694;23.314;2023-06-04T13:40:33;9.27;;;7.93;;
70126;SDS011;57491;42.694;23.314;2023-06-04T13:43:01;8.68;;;7.78;;
70126;SDS011;57491;42.694;23.314;2023-06-04T13:45:29;16.92;;;8.20;;
70126;SDS011;57491;42.694;23.314;2023-06-04T13:47:57;9.57;;;7.60;;
70126;SDS011;57491;42.694;23.314;2023-06-04T13:50:27;8.30;;;7.30;;
70126;SDS011;57491;42.694;23.314;2023-06-04T13:52:55;11.10;;;8.57;;
70126;SDS011;57491;42.694;23.314;2023-06-04T13:55:22;10.40;;;7.60;;
70126;SDS011;57491;42.694;23.314;2023-06-04T13:57:49;9.02;;;6.95;;
70126;SDS011;57491;42.694;23.314;2023-06-04T14:00:16;12.43;;;8.38;;
70126;SDS011;57491;42.694;23.314;2023-06-04T14:02:44;10.15;;;7.38;;
70126;SDS011;57491;42.694;23.314;2023-06-04T14:05:11;10.73;;;9.10;;
70126;SDS011;57491;42.694;23.314;2023-06-04T14:07:38;8.18;;;7.20;;
70126;SDS011;57491;42.694;23.314;2023-06-04T14:10:06;8.77;;;7.05;;
70126;SDS011;57491;42.694;23.314;2023-06-04T14:12:33;8.82;;;7.18;;
70126;SDS011;57491;42.694;23.314;2023-06-04T14:15:00;7.70;;;6.90;;
70126;SDS011;57491;42.694;23.314;2023-06-04T14:17:27;10.45;;;7.93;;
70126;SDS011;57491;42.694;23.314;2023-06-04T14:19:56;10.65;;;7.45;;
70126;SDS011;57491;42.694;23.314;2023-06-04T14:22:23;8.55;;;7.45;;
70126;SDS011;57491;42.694;23.314;2023-06-04T14:24:50;8.27;;;7.47;;
70126;SDS011;57491;42.694;23.314;2023-06-04T14:27:17;8.23;;;7.13;;
70126;SDS011;57491;42.694;23.314;2023-06-04T14:29:44;11.20;;;8.63;;
70126;SDS011;57491;42.694;23.314;2023-06-04T14:32:11;10.77;;;7.83;;
70126;SDS011;57491;42.694;23.314;2023-06-04T14:34:38;7.37;;;6.67;;
70126;SDS011;57491;42.694;23.314;2023-06-04T14:37:06;11.90;;;8.37;;
70126;SDS011;57491;42.694;23.314;2023-06-04T14:39:33;9.13;;;8.05;;
70126;SDS011;57491;42.694;23.314;2023-06-04T14:42:01;11.13;;;8.38;;
70126;SDS011;57491;42.694;23.314;2023-06-04T14:44:28;9.25;;;8.27;;
70126;SDS011;57491;42.694;23.314;2023-06-04T14:46:55;10.57;;;8.23;;
70126;SDS011;57491;42.694;23.314;2023-06-04T14:49:23;12.50;;;8.10;;
70126;SDS011;57491;42.694;23.314;2023-06-04T14:51:50;8.82;;;7.93;;
70126;SDS011;57491;42.694;23.314;2023-06-04T14:54:18;9.20;;;8.17;;
70126;SDS011;57491;42.694;23.314;2023-06-04T14:56:45;9.27;;;7.38;;
70126;SDS011;57491;42.694;23.314;2023-06-04T14:59:12;9.33;;;7.97;;
70126;SDS011;57491;42.694;23.314;2023-06-04T15:01:39;11.52;;;8.20;;